Time;durP1;ratioP1;P1;durP2;ratioP2;P2;SDS_P1;SDS_P2;PMS_P1;PMS_P2;Temp;Humidity;BMP_temperature;BMP_pressure;BME280_temperature;BME280_humidity;BME280_pressure;Samples;Min_cycle;Max_cycle;Signal;HPM_P1;HPM_P2
2022/01/31 00:02:22;;;;;;;5.72;2.42;;;22.50;37.00;;;;;;5015619;28;20095;-57
2022/01/31 00:04:48;;;;;;;7.68;2.63;;;22.50;37.70;;;;;;5010090;28;20049;-56
2022/01/31 00:07:13;;;;;;;6.05;2.47;;;22.40;36.90;;;;;;5013987;28;20052;-57
2022/01/31 00:09:42;;;;;;;8.13;2.90;;;22.40;37.00;;;;;;5010369;28;20119;-56
2022/01/31 00:12:11;;;;;;;6.55;2.55;;;22.40;36.90;;;;;;5013516;28;20054;-56
2022/01/31 00:14:43;;;;;;;8.02;3.10;;;22.40;37.20;;;;;;5014718;28;20536;-57
2022/01/31 00:17:10;;;;;;;5.95;2.55;;;22.30;36.90;;;;;;5013587;28;20526;-57
2022/01/31 00:19:36;;;;;;;8.00;2.60;;;22.30;37.00;;;;;;5010646;28;20033;-57
2022/01/31 00:22:04;;;;;;;6.65;2.78;;;22.30;36.90;;;;;;5012455;28;20128;-57
2022/01/31 00:24:30;;;;;;;6.90;2.50;;;22.30;36.90;;;;;;5012473;28;20046;-56
2022/01/31 00:26:55;;;;;;;7.63;3.17;;;22.20;36.90;;;;;;5014813;28;20504;-56
2022/01/31 00:29:21;;;;;;;6.68;2.70;;;22.20;36.90;;;;;;5012347;28;20034;-56
2022/01/31 00:31:47;;;;;;;8.02;3.15;;;22.20;36.80;;;;;;5011946;28;20052;-56
2022/01/31 00:34:12;;;;;;;6.53;2.88;;;22.20;36.80;;;;;;5012266;28;20481;-57
2022/01/31 00:36:38;;;;;;;7.97;3.10;;;22.20;36.80;;;;;;5013506;28;20053;-56
2022/01/31 00:39:04;;;;;;;7.28;3.30;;;22.20;36.80;;;;;;5012734;28;20549;-56
2022/01/31 00:41:30;;;;;;;5.50;2.50;;;22.10;36.80;;;;;;5010720;28;20133;-56
2022/01/31 00:44:02;;;;;;;7.85;2.80;;;22.10;36.80;;;;;;5012283;28;20034;-56
2022/01/31 00:46:40;;;;;;;6.32;2.80;;;22.10;36.90;;;;;;5010796;28;20050;-57
2022/01/31 00:49:12;;;;;;;5.55;2.72;;;22.10;37.00;;;;;;5010546;28;20073;-56
2022/01/31 00:51:37;;;;;;;7.40;2.90;;;22.10;36.90;;;;;;5013727;28;20132;-57
2022/01/31 00:54:03;;;;;;;7.20;2.88;;;22.00;36.80;;;;;;5011604;28;20049;-57
2022/01/31 00:56:29;;;;;;;6.18;2.70;;;22.00;36.80;;;;;;5013285;28;20044;-56
2022/01/31 00:58:54;;;;;;;6.55;2.72;;;22.00;36.80;;;;;;5014222;28;20486;-56
2022/01/31 01:01:20;;;;;;;6.53;2.97;;;22.00;36.80;;;;;;5010044;28;20103;-56
2022/01/31 01:03:45;;;;;;;5.90;2.72;;;21.90;36.70;;;;;;5011793;28;20277;-57
2022/01/31 01:06:11;;;;;;;6.60;2.63;;;21.90;36.70;;;;;;5010144;28;20099;-56
2022/01/31 01:08:37;;;;;;;7.00;2.83;;;21.90;36.70;;;;;;5012269;28;20490;-57
2022/01/31 01:11:03;;;;;;;6.55;2.75;;;21.90;36.70;;;;;;5009349;28;20501;-57
2022/01/31 01:13:29;;;;;;;4.85;2.50;;;21.90;36.70;;;;;;5011732;28;20132;-57
2022/01/31 01:15:54;;;;;;;6.35;2.38;;;21.80;36.70;;;;;;5010544;28;20050;-57
2022/01/31 01:18:20;;;;;;;7.22;3.10;;;21.80;36.70;;;;;;5012329;28;20054;-57
2022/01/31 01:20:45;;;;;;;6.90;2.83;;;21.80;36.70;;;;;;5009851;28;20045;-56
2022/01/31 01:23:11;;;;;;;7.30;3.20;;;21.80;36.70;;;;;;5013709;28;20050;-56
2022/01/31 01:25:36;;;;;;;6.70;3.00;;;21.80;36.70;;;;;;5007609;28;20055;-56
2022/01/31 01:28:02;;;;;;;8.55;3.10;;;21.80;36.70;;;;;;5011887;28;20508;-57
2022/01/31 01:30:27;;;;;;;5.57;2.65;;;21.70;36.60;;;;;;5010789;28;20057;-58
2022/01/31 01:35:22;;;;;;;8.45;3.53;;;21.70;36.70;;;;;;5010635;28;20049;-56
2022/01/31 01:37:48;;;;;;;5.53;2.85;;;21.70;36.70;;;;;;5011864;28;20054;-57
2022/01/31 01:40:13;;;;;;;6.60;2.70;;;21.70;36.80;;;;;;5009641;28;20575;-56
2022/01/31 01:42:41;;;;;;;5.30;2.70;;;21.60;36.80;;;;;;5010440;28;20168;-56
2022/01/31 01:45:08;;;;;;;8.05;3.50;;;21.60;36.80;;;;;;5009824;28;20049;-57
2022/01/31 01:47:33;;;;;;;6.70;3.00;;;21.60;36.80;;;;;;5012972;28;20128;-57
2022/01/31 01:49:59;;;;;;;5.43;2.63;;;21.60;36.90;;;;;;5010636;28;20133;-56
2022/01/31 01:52:25;;;;;;;4.25;2.70;;;21.60;37.00;;;;;;5010519;28;20104;-58
2022/01/31 01:54:51;;;;;;;7.47;2.53;;;21.60;37.10;;;;;;5011036;28;20494;-56
2022/01/31 01:57:18;;;;;;;5.22;2.60;;;21.50;37.10;;;;;;5010170;28;20042;-57
2022/01/31 01:59:44;;;;;;;6.45;2.83;;;21.50;37.10;;;;;;5010509;28;20065;-57
2022/01/31 02:02:09;;;;;;;6.72;2.88;;;21.50;37.10;;;;;;5009992;28;20134;-57
2022/01/31 02:04:35;;;;;;;8.10;2.78;;;21.50;37.10;;;;;;5011034;28;20042;-57
2022/01/31 02:07:01;;;;;;;4.43;2.20;;;21.50;37.20;;;;;;5008271;28;20045;-57
2022/01/31 02:09:29;;;;;;;6.85;2.85;;;21.50;37.20;;;;;;5011695;28;20510;-56
2022/01/31 02:11:57;;;;;;;6.43;2.88;;;21.50;37.20;;;;;;5009012;28;20521;-56
2022/01/31 02:14:26;;;;;;;6.00;2.67;;;21.50;37.40;;;;;;5011646;28;20053;-57
2022/01/31 02:16:52;;;;;;;6.97;2.88;;;21.50;37.50;;;;;;5009542;28;20073;-56
2022/01/31 02:19:18;;;;;;;8.00;2.90;;;21.50;37.60;;;;;;5011060;28;20049;-56
2022/01/31 02:21:45;;;;;;;5.22;2.67;;;21.40;37.50;;;;;;5009951;28;20242;-56
2022/01/31 02:24:12;;;;;;;5.05;2.58;;;21.40;37.60;;;;;;5009435;28;20077;-56
2022/01/31 02:26:38;;;;;;;6.32;2.80;;;21.40;37.70;;;;;;5009631;28;20049;-57
2022/01/31 02:29:05;;;;;;;4.40;2.33;;;21.40;37.70;;;;;;5011090;28;20119;-56
2022/01/31 02:31:31;;;;;;;3.33;2.20;;;21.40;37.70;;;;;;5008249;28;20559;-56
2022/01/31 02:33:56;;;;;;;5.43;2.47;;;21.40;37.70;;;;;;5009487;28;20057;-58
2022/01/31 02:36:22;;;;;;;4.32;2.28;;;21.40;37.70;;;;;;5010040;28;20096;-57
2022/01/31 02:38:47;;;;;;;4.55;2.20;;;21.40;37.70;;;;;;5010901;28;20053;-56
2022/01/31 02:41:13;;;;;;;3.65;2.15;;;21.30;37.70;;;;;;5009248;28;20076;-57
2022/01/31 02:43:39;;;;;;;4.65;2.25;;;21.30;37.80;;;;;;5013531;28;20045;-57
2022/01/31 02:46:04;;;;;;;3.67;2.30;;;21.30;37.80;;;;;;5009154;28;20434;-56
2022/01/31 02:48:33;;;;;;;5.72;2.10;;;21.30;37.80;;;;;;5011929;28;20104;-56
2022/01/31 02:50:59;;;;;;;4.13;2.13;;;21.30;37.90;;;;;;5012088;28;20057;-56
2022/01/31 02:53:27;;;;;;;3.35;1.95;;;21.30;38.00;;;;;;5013979;28;20052;-56
2022/01/31 02:55:55;;;;;;;4.65;2.13;;;21.30;37.90;;;;;;5012468;28;20052;-56
2022/01/31 02:58:21;;;;;;;8.75;2.33;;;21.20;37.90;;;;;;5016464;28;20429;-56
2022/01/31 03:00:48;;;;;;;10.35;2.42;;;21.20;37.90;;;;;;5008401;28;20054;-57
2022/01/31 03:03:14;;;;;;;5.90;2.25;;;21.20;38.00;;;;;;5013220;28;20112;-57
2022/01/31 03:05:39;;;;;;;7.43;2.22;;;21.20;38.00;;;;;;5010578;28;20046;-57
2022/01/31 03:08:06;;;;;;;5.45;2.42;;;21.20;38.80;;;;;;5015154;28;20065;-57
2022/01/31 03:10:32;;;;;;;3.85;2.53;;;21.20;38.00;;;;;;5012213;28;20037;-56
2022/01/31 03:12:58;;;;;;;4.57;1.95;;;21.20;38.10;;;;;;5014969;28;20512;-56
2022/01/31 03:15:23;;;;;;;6.68;1.90;;;21.20;38.10;;;;;;5014023;28;20124;-57
2022/01/31 03:17:50;;;;;;;5.28;2.38;;;21.20;38.20;;;;;;5010834;28;20638;-57
2022/01/31 03:20:18;;;;;;;8.50;2.28;;;21.20;38.10;;;;;;5010780;28;20057;-56
2022/01/31 03:22:44;;;;;;;3.53;1.70;;;21.20;38.10;;;;;;5013349;28;20103;-57
2022/01/31 03:25:10;;;;;;;2.25;1.67;;;21.10;38.10;;;;;;5011350;28;20076;-57
2022/01/31 03:27:36;;;;;;;4.57;1.67;;;21.10;38.10;;;;;;5014906;28;20072;-57
2022/01/31 03:30:04;;;;;;;2.75;1.63;;;21.10;38.00;;;;;;5012061;28;20456;-58
2022/01/31 03:32:30;;;;;;;2.78;1.55;;;21.10;38.20;;;;;;5015020;28;20053;-56
2022/01/31 03:34:55;;;;;;;2.55;1.42;;;21.10;38.20;;;;;;5012247;28;20423;-56
2022/01/31 03:37:21;;;;;;;3.35;1.48;;;21.10;38.30;;;;;;5013976;28;20049;-56
2022/01/31 03:39:47;;;;;;;2.25;1.65;;;21.00;38.20;;;;;;5010968;28;20064;-56
2022/01/31 03:42:16;;;;;;;3.80;1.83;;;21.00;38.30;;;;;;5017721;28;20054;-56
2022/01/31 03:44:43;;;;;;;3.60;1.98;;;21.00;38.40;;;;;;5009160;28;20084;-56
2022/01/31 03:47:08;;;;;;;2.88;1.70;;;21.00;38.30;;;;;;5015138;28;20405;-56
2022/01/31 03:49:34;;;;;;;6.10;1.75;;;21.00;38.40;;;;;;5011615;28;20045;-57
2022/01/31 03:52:00;;;;;;;3.78;1.80;;;21.00;38.50;;;;;;5015477;28;20046;-57
2022/01/31 03:54:25;;;;;;;1.98;1.40;;;21.00;38.60;;;;;;5010641;28;20048;-56
2022/01/31 03:56:51;;;;;;;5.13;1.80;;;21.00;38.70;;;;;;5013727;28;20045;-57
2022/01/31 03:59:16;;;;;;;1.77;1.40;;;21.00;38.50;;;;;;5010993;28;20056;-57
2022/01/31 04:01:42;;;;;;;3.55;1.73;;;21.00;38.50;;;;;;5013002;28;20477;-56
2022/01/31 04:04:10;;;;;;;2.70;1.40;;;20.90;38.50;;;;;;5006886;28;20050;-56
2022/01/31 04:06:38;;;;;;;3.03;1.30;;;21.00;38.50;;;;;;5011185;28;20045;-57
2022/01/31 04:09:03;;;;;;;4.10;1.80;;;20.90;38.50;;;;;;5011414;28;20073;-57
2022/01/31 04:11:29;;;;;;;2.97;1.35;;;20.90;38.60;;;;;;5010985;28;20108;-57
2022/01/31 04:13:54;;;;;;;3.10;1.52;;;20.90;38.60;;;;;;5010791;28;20063;-56
2022/01/31 04:16:20;;;;;;;4.50;1.60;;;20.90;38.70;;;;;;5013325;28;20093;-57
2022/01/31 04:18:45;;;;;;;4.55;2.10;;;20.90;38.70;;;;;;5012430;28;20053;-57
2022/01/31 04:21:12;;;;;;;3.45;1.90;;;20.90;38.70;;;;;;5010887;28;20045;-58
2022/01/31 04:23:38;;;;;;;3.75;1.40;;;20.80;38.70;;;;;;5014448;28;20042;-56
2022/01/31 04:26:11;;;;;;;4.00;1.80;;;20.90;38.80;;;;;;5010559;28;20096;-56
2022/01/31 04:28:43;;;;;;;3.78;1.63;;;20.90;38.80;;;;;;5012006;28;20061;-56
2022/01/31 04:31:14;;;;;;;5.65;1.90;;;20.80;38.70;;;;;;5009095;28;20054;-57
2022/01/31 04:33:40;;;;;;;;;;;20.80;38.80;;;;;;5014013;28;20054;-57
2022/01/31 04:36:10;;;;;;;5.30;1.77;;;20.80;38.80;;;;;;5012473;28;19932;-57
2022/01/31 04:38:36;;;;;;;4.60;1.52;;;20.80;38.90;;;;;;5016607;28;20072;-57
2022/01/31 04:41:02;;;;;;;4.57;1.70;;;20.80;39.60;;;;;;5007796;28;20563;-57
2022/01/31 04:43:27;;;;;;;4.55;1.60;;;20.80;38.80;;;;;;5014167;28;20504;-59
2022/01/31 04:45:56;;;;;;;4.40;1.55;;;20.70;38.70;;;;;;5010163;28;20092;-58
2022/01/31 04:48:21;;;;;;;4.22;1.80;;;20.70;38.70;;;;;;5010685;28;20136;-56
2022/01/31 04:50:47;;;;;;;4.35;1.50;;;20.70;38.70;;;;;;5011398;28;20121;-56
2022/01/31 04:53:14;;;;;;;4.18;1.60;;;20.70;38.70;;;;;;5014216;28;20039;-56
2022/01/31 04:55:40;;;;;;;4.88;1.55;;;20.70;38.70;;;;;;5009466;28;20049;-58
2022/01/31 04:58:07;;;;;;;5.07;1.52;;;20.70;38.70;;;;;;5011315;28;20045;-57
2022/01/31 05:00:33;;;;;;;6.70;1.90;;;20.70;38.70;;;;;;5007801;28;20073;-57
2022/01/31 05:02:59;;;;;;;4.03;1.63;;;20.70;38.70;;;;;;5007589;28;20561;-57
2022/01/31 05:05:25;;;;;;;5.22;1.73;;;20.70;38.70;;;;;;5010767;28;20436;-58
2022/01/31 05:07:53;;;;;;;4.22;1.65;;;20.70;38.70;;;;;;4995036;28;20449;-59
2022/01/31 05:10:19;;;;;;;5.10;1.95;;;20.70;38.70;;;;;;5018206;28;20077;-57
2022/01/31 05:12:45;;;;;;;6.22;1.85;;;20.70;38.70;;;;;;5010363;28;20263;-57
2022/01/31 05:15:10;;;;;;;5.40;2.00;;;20.60;38.70;;;;;;5009499;28;20050;-58
2022/01/31 05:17:36;;;;;;;4.05;1.60;;;20.60;39.00;;;;;;5008380;28;20041;-57
2022/01/31 05:20:03;;;;;;;5.38;2.20;;;20.60;38.90;;;;;;5011350;28;20061;-56
2022/01/31 05:22:29;;;;;;;5.63;2.00;;;20.60;38.80;;;;;;5008061;28;20079;-56
2022/01/31 05:24:54;;;;;;;5.35;1.70;;;20.60;39.00;;;;;;5013258;28;20490;-56
2022/01/31 05:27:21;;;;;;;5.50;1.85;;;20.60;39.00;;;;;;5011588;28;20053;-57
2022/01/31 05:29:46;;;;;;;5.00;1.80;;;20.60;39.00;;;;;;5012557;28;20557;-56
2022/01/31 05:32:12;;;;;;;4.10;1.55;;;20.60;39.10;;;;;;5009155;28;20041;-56
2022/01/31 05:34:37;;;;;;;5.72;1.75;;;20.60;39.10;;;;;;5011848;28;20054;-56
2022/01/31 05:37:04;;;;;;;4.22;1.73;;;20.60;39.00;;;;;;5010519;28;20050;-56
2022/01/31 05:39:29;;;;;;;3.70;1.30;;;20.60;39.00;;;;;;5010371;28;20077;-57
2022/01/31 05:41:56;;;;;;;4.70;1.67;;;20.60;39.20;;;;;;5012936;28;20124;-56
2022/01/31 05:44:23;;;;;;;4.15;1.45;;;20.60;39.20;;;;;;5009589;28;20069;-57
2022/01/31 05:46:48;;;;;;;3.83;1.38;;;20.60;39.30;;;;;;5013711;28;20054;-57
2022/01/31 05:49:14;;;;;;;4.40;1.38;;;20.60;39.30;;;;;;5009746;28;20045;-56
2022/01/31 05:51:53;;;;;;;3.35;1.10;;;20.60;39.30;;;;;;5012535;28;20497;-57
2022/01/31 05:54:19;;;;;;;3.30;1.20;;;20.60;39.50;;;;;;5009174;28;20038;-57
2022/01/31 05:56:45;;;;;;;4.93;1.60;;;20.50;39.50;;;;;;5008470;28;20528;-57
2022/01/31 05:59:10;;;;;;;4.25;1.73;;;20.50;39.50;;;;;;5012869;28;20049;-56
2022/01/31 06:01:38;;;;;;;17.45;1.52;;;20.50;39.50;;;;;;5009735;28;20423;-57
2022/01/31 06:04:08;;;;;;;3.40;1.15;;;20.50;39.60;;;;;;5012984;28;20050;-56
2022/01/31 06:06:34;;;;;;;4.33;1.37;;;20.50;39.60;;;;;;5010196;28;20081;-55
2022/01/31 06:08:59;;;;;;;4.35;1.20;;;20.50;39.70;;;;;;5010203;28;20088;-57
2022/01/31 06:11:26;;;;;;;2.55;1.20;;;20.50;39.70;;;;;;5007790;28;20065;-56
2022/01/31 06:13:54;;;;;;;3.83;1.30;;;20.50;40.00;;;;;;5012183;28;20058;-55
2022/01/31 06:16:20;;;;;;;2.92;1.38;;;20.50;39.80;;;;;;5009861;28;20080;-58
2022/01/31 06:18:45;;;;;;;3.67;1.35;;;20.50;40.00;;;;;;5005716;28;20485;-59
2022/01/31 06:21:12;;;;;;;2.67;1.20;;;20.50;40.10;;;;;;5007467;28;20060;-59
2022/01/31 06:23:38;;;;;;;3.03;1.30;;;20.50;40.20;;;;;;5006475;28;21155;-56
2022/01/31 06:26:04;;;;;;;4.32;1.42;;;20.50;40.20;;;;;;5008965;28;20802;-58
2022/01/31 06:28:29;;;;;;;3.40;1.33;;;20.50;40.20;;;;;;5008766;28;20056;-56
2022/01/31 06:30:55;;;;;;;3.53;1.20;;;20.60;40.30;;;;;;5010502;28;20045;-56
2022/01/31 06:33:21;;;;;;;3.67;1.40;;;20.60;40.60;;;;;;5004797;28;20049;-56
2022/01/31 06:35:47;;;;;;;4.47;0.95;;;20.50;40.20;;;;;;5010433;28;20045;-57
2022/01/31 06:38:13;;;;;;;3.15;1.50;;;20.60;40.30;;;;;;5004288;28;20053;-57
2022/01/31 06:40:39;;;;;;;3.60;1.50;;;20.60;40.40;;;;;;5005952;28;20103;-57
2022/01/31 06:43:04;;;;;;;4.18;1.35;;;20.60;40.40;;;;;;5009568;28;20144;-57
2022/01/31 06:45:30;;;;;;;3.53;1.08;;;20.60;40.30;;;;;;5011315;28;20051;-57
2022/01/31 06:47:56;;;;;;;2.65;1.30;;;20.60;40.40;;;;;;5009284;28;20137;-56
2022/01/31 06:50:23;;;;;;;3.35;1.20;;;20.60;40.40;;;;;;5009089;28;20091;-55
2022/01/31 06:52:53;;;;;;;2.88;1.23;;;20.60;40.50;;;;;;5007494;28;22011;-56
2022/01/31 06:55:20;;;;;;;2.90;1.05;;;20.60;40.40;;;;;;5007638;28;20464;-57
2022/01/31 06:57:46;;;;;;;2.00;1.10;;;20.60;40.30;;;;;;5011451;28;20108;-56
2022/01/31 07:00:13;;;;;;;2.42;1.25;;;20.60;40.50;;;;;;5008426;28;20038;-58
2022/01/31 07:02:39;;;;;;;2.67;0.90;;;20.60;40.50;;;;;;5009324;28;20042;-56
2022/01/31 07:05:05;;;;;;;2.92;1.08;;;20.60;40.30;;;;;;5009584;28;20049;-56
2022/01/31 07:07:32;;;;;;;2.88;0.98;;;20.60;40.40;;;;;;5009893;28;20429;-56
2022/01/31 07:10:01;;;;;;;2.38;1.00;;;20.60;40.30;;;;;;5008371;28;20152;-57
2022/01/31 07:12:32;;;;;;;2.95;1.00;;;20.60;40.30;;;;;;5010106;28;20505;-57
2022/01/31 07:14:57;;;;;;;2.75;1.00;;;20.70;40.30;;;;;;5009024;28;20049;-57
2022/01/31 07:17:23;;;;;;;3.88;1.30;;;20.60;40.40;;;;;;5008588;28;20037;-56
2022/01/31 07:19:49;;;;;;;2.90;1.02;;;20.60;40.30;;;;;;5008831;28;20044;-57
2022/01/31 07:22:15;;;;;;;4.50;1.23;;;20.60;40.40;;;;;;5008917;28;20125;-56
2022/01/31 07:24:52;;;;;;;2.15;0.90;;;20.60;40.30;;;;;;5010231;28;20045;-57
2022/01/31 07:27:18;;;;;;;2.28;0.93;;;20.70;40.30;;;;;;5011079;28;20052;-57
2022/01/31 07:29:45;;;;;;;4.22;1.42;;;20.70;40.30;;;;;;5010324;28;20433;-57
2022/01/31 07:32:11;;;;;;;3.40;1.00;;;20.70;40.30;;;;;;5010105;28;20053;-57
2022/01/31 07:34:40;;;;;;;1.75;1.00;;;20.70;40.30;;;;;;5007636;28;20056;-57
2022/01/31 07:37:08;;;;;;;2.75;1.10;;;20.70;40.20;;;;;;5015114;28;20061;-56
2022/01/31 07:39:33;;;;;;;2.30;1.05;;;20.70;40.20;;;;;;5011306;28;20525;-57
2022/01/31 07:41:59;;;;;;;2.30;0.80;;;20.70;40.10;;;;;;5015316;28;20042;-56
2022/01/31 07:44:24;;;;;;;2.95;1.20;;;20.70;40.10;;;;;;5010003;28;20042;-57
2022/01/31 07:46:52;;;;;;;2.63;0.95;;;20.70;40.00;;;;;;5014942;28;20053;-58
2022/01/31 07:49:17;;;;;;;4.40;1.27;;;20.70;40.00;;;;;;5012083;28;20045;-57
2022/01/31 07:51:43;;;;;;;3.65;1.33;;;20.70;40.00;;;;;;5013853;28;20080;-57
2022/01/31 07:54:09;;;;;;;1.80;1.10;;;20.70;40.00;;;;;;5009648;28;20497;-57
2022/01/31 07:56:35;;;;;;;3.58;1.40;;;20.70;40.10;;;;;;5010667;28;20054;-58
2022/01/31 07:59:00;;;;;;;3.33;1.50;;;20.70;40.00;;;;;;5007605;28;20662;-57
2022/01/31 08:01:26;;;;;;;4.07;1.60;;;20.70;40.10;;;;;;5012013;28;20053;-56
2022/01/31 08:03:53;;;;;;;3.10;1.27;;;20.70;40.20;;;;;;5011526;28;20494;-57
2022/01/31 08:06:18;;;;;;;3.95;1.25;;;20.70;40.30;;;;;;5008433;28;20049;-57
2022/01/31 08:08:44;;;;;;;4.22;1.20;;;20.70;40.30;;;;;;5011238;28;20042;-56
2022/01/31 08:11:10;;;;;;;3.88;1.40;;;20.70;40.30;;;;;;5011532;28;20037;-57
2022/01/31 08:13:36;;;;;;;3.78;1.50;;;20.70;40.40;;;;;;5012000;28;20053;-57
2022/01/31 08:16:13;;;;;;;3.70;1.40;;;20.70;40.40;;;;;;5011031;28;20481;-57
2022/01/31 08:18:44;;;;;;;2.60;1.10;;;20.80;40.50;;;;;;5013792;28;20038;-57
2022/01/31 08:21:11;;;;;;;4.65;1.40;;;20.80;40.60;;;;;;5011565;28;20061;-57
2022/01/31 08:23:37;;;;;;;2.30;1.20;;;20.80;40.70;;;;;;5013333;28;20049;-57
2022/01/31 08:26:05;;;;;;;4.95;1.60;;;20.80;40.70;;;;;;5012813;28;20169;-57
2022/01/31 08:31:07;;;;;;;3.30;1.50;;;20.80;40.90;;;;;;5010809;28;20481;-57
2022/01/31 08:33:36;;;;;;;3.30;1.40;;;20.80;40.90;;;;;;5009495;28;20046;-57
2022/01/31 08:36:05;;;;;;;2.53;1.25;;;20.80;40.90;;;;;;5014023;28;20145;-58
2022/01/31 08:38:31;;;;;;;4.00;1.42;;;20.80;41.00;;;;;;5012771;28;20046;-57
2022/01/31 08:40:58;;;;;;;5.57;1.70;;;20.80;41.00;;;;;;5010251;28;20041;-56
2022/01/31 08:43:25;;;;;;;4.57;2.05;;;20.80;41.00;;;;;;5010279;28;20049;-57
2022/01/31 08:45:53;;;;;;;4.22;1.83;;;20.80;41.00;;;;;;5012249;28;20049;-57
2022/01/31 08:48:19;;;;;;;3.25;1.83;;;20.90;41.10;;;;;;5013956;28;20053;-56
2022/01/31 08:50:45;;;;;;;3.78;1.50;;;20.90;41.10;;;;;;5010055;28;20085;-57
2022/01/31 08:53:10;;;;;;;2.42;1.40;;;20.90;41.10;;;;;;5011601;28;20053;-57
2022/01/31 08:55:36;;;;;;;2.85;1.40;;;20.90;41.10;;;;;;5009931;28;20046;-56
2022/01/31 08:58:05;;;;;;;3.50;1.35;;;20.80;41.10;;;;;;5010777;28;20049;-57
2022/01/31 09:00:35;;;;;;;3.78;1.50;;;20.90;41.20;;;;;;5009038;28;20050;-57
2022/01/31 09:03:17;;;;;;;3.60;1.48;;;20.90;41.40;;;;;;5009893;28;20413;-58
2022/01/31 09:05:43;;;;;;;3.92;1.60;;;20.90;41.50;;;;;;5008948;28;20049;-56
2022/01/31 09:08:08;;;;;;;4.15;1.50;;;20.90;41.60;;;;;;5010671;28;20453;-56
2022/01/31 09:10:35;;;;;;;4.10;1.55;;;20.90;41.70;;;;;;5011676;28;20107;-57
2022/01/31 09:13:00;;;;;;;5.22;1.52;;;20.90;41.80;;;;;;5008128;28;20640;-56
2022/01/31 09:15:26;;;;;;;4.18;1.60;;;20.90;41.90;;;;;;5011150;28;20586;-57
2022/01/31 09:17:52;;;;;;;5.50;1.60;;;20.90;42.10;;;;;;5011920;28;20046;-56
2022/01/31 09:20:19;;;;;;;3.92;1.40;;;20.90;42.30;;;;;;5009108;28;20513;-57
2022/01/31 09:22:44;;;;;;;4.18;1.27;;;21.00;42.40;;;;;;5004360;28;20124;-56
2022/01/31 09:25:11;;;;;;;4.28;1.70;;;21.00;42.60;;;;;;5010647;28;20041;-56
2022/01/31 09:27:37;;;;;;;3.35;1.23;;;20.90;42.70;;;;;;5010090;28;20118;-56
2022/01/31 09:30:08;;;;;;;5.82;1.60;;;21.00;43.00;;;;;;5012227;28;20592;-57
2022/01/31 09:32:34;;;;;;;3.83;1.50;;;21.00;43.00;;;;;;5009981;28;20066;-56
2022/01/31 09:34:59;;;;;;;2.97;1.13;;;21.00;43.10;;;;;;5008478;28;20149;-58
2022/01/31 09:37:25;;;;;;;1.90;1.30;;;21.00;43.10;;;;;;5010187;28;20289;-58
2022/01/31 09:39:51;;;;;;;3.92;1.40;;;21.00;43.20;;;;;;5008346;28;20146;-57
2022/01/31 09:42:30;;;;;;;4.80;1.40;;;21.00;43.30;;;;;;5011128;28;20117;-57
2022/01/31 09:45:21;;;;;;;2.85;1.17;;;21.00;43.20;;;;;;5009148;28;20379;-57
2022/01/31 09:50:27;;;;;;;2.90;1.30;;;21.10;43.30;;;;;;5009231;28;20061;-57
2022/01/31 09:52:54;;;;;;;2.85;1.27;;;21.00;43.40;;;;;;5008705;28;20034;-57
2022/01/31 09:55:21;;;;;;;3.03;1.60;;;21.10;43.60;;;;;;5010020;28;20049;-57
2022/01/31 09:57:48;;;;;;;3.38;1.30;;;21.10;43.80;;;;;;5009889;28;20063;-56
2022/01/31 10:00:14;;;;;;;2.90;1.17;;;21.10;43.80;;;;;;5008933;28;20133;-56
2022/01/31 10:02:40;;;;;;;2.53;1.10;;;21.10;43.80;;;;;;5007453;28;20481;-56
2022/01/31 10:05:06;;;;;;;2.38;1.10;;;21.10;43.70;;;;;;5011441;28;20076;-57
2022/01/31 10:07:46;;;;;;;2.08;1.10;;;21.10;44.50;;;;;;5006646;28;20128;-58
2022/01/31 10:10:25;;;;;;;2.60;1.25;;;21.10;43.70;;;;;;5008435;28;20045;-57
2022/01/31 10:18:08;;;;;;;2.83;1.38;;;21.20;43.70;;;;;;5010635;28;20135;-57
2022/01/31 10:20:35;;;;;;;3.47;1.50;;;21.20;43.70;;;;;;5009417;28;20489;-57
2022/01/31 10:23:11;;;;;;;3.65;1.38;;;21.20;43.70;;;;;;5007377;28;20104;-56
2022/01/31 10:25:37;;;;;;;2.25;1.38;;;21.20;43.70;;;;;;5013022;28;20050;-56
2022/01/31 10:28:14;;;;;;;3.38;1.15;;;21.20;43.70;;;;;;5009063;28;20049;-56
2022/01/31 10:30:40;;;;;;;3.75;1.30;;;21.20;43.70;;;;;;5011007;28;20076;-57
2022/01/31 10:33:09;;;;;;;3.05;1.17;;;21.20;43.70;;;;;;5010760;28;20054;-58
2022/01/31 10:35:35;;;;;;;2.83;1.20;;;21.20;43.60;;;;;;5010092;28;20446;-57
2022/01/31 10:38:09;;;;;;;3.63;1.65;;;21.20;43.70;;;;;;5008247;28;20107;-57
2022/01/31 10:43:39;;;;;;;3.17;1.05;;;21.20;43.60;;;;;;5010812;28;20580;-56
2022/01/31 10:46:21;;;;;;;2.92;1.10;;;21.20;43.60;;;;;;5010717;28;20088;-57
2022/01/31 10:54:08;;;;;;;2.35;1.30;;;21.20;43.40;;;;;;5011990;28;20100;-57
2022/01/31 10:56:45;;;;;;;2.42;1.00;;;21.20;43.40;;;;;;5009361;28;20556;-58
2022/01/31 10:59:16;;;;;;;3.42;1.27;;;21.20;43.40;;;;;;5012080;28;20049;-56
2022/01/31 11:01:45;;;;;;;3.78;1.30;;;21.20;43.40;;;;;;5012080;28;20460;-57
2022/01/31 11:04:12;;;;;;;3.35;1.00;;;21.30;43.50;;;;;;5007001;28;20058;-56
2022/01/31 11:06:40;;;;;;;3.28;1.15;;;21.20;43.40;;;;;;5009456;28;20046;-56
2022/01/31 11:09:11;;;;;;;2.40;0.90;;;21.30;43.50;;;;;;5003655;28;20045;-57
2022/01/31 11:11:40;;;;;;;2.80;1.23;;;21.30;43.50;;;;;;5016331;28;20358;-56
2022/01/31 11:14:07;;;;;;;3.75;1.52;;;21.30;43.50;;;;;;5011018;28;20057;-56
2022/01/31 11:16:33;;;;;;;3.15;1.10;;;21.20;43.50;;;;;;5016632;28;20136;-56
2022/01/31 11:19:02;;;;;;;2.08;1.00;;;21.30;43.80;;;;;;5008050;28;20045;-56
2022/01/31 11:21:34;;;;;;;2.75;1.23;;;21.30;43.80;;;;;;5015623;28;20128;-57
2022/01/31 11:24:03;;;;;;;3.10;1.27;;;21.30;43.80;;;;;;5014989;28;20042;-57
2022/01/31 11:26:40;;;;;;;2.42;1.30;;;21.30;43.80;;;;;;5014835;28;20049;-56
2022/01/31 11:29:07;;;;;;;3.83;1.30;;;21.30;44.00;;;;;;5012036;28;20064;-57
2022/01/31 11:31:35;;;;;;;2.15;1.33;;;21.30;44.00;;;;;;5009537;28;20046;-56
2022/01/31 11:34:01;;;;;;;2.88;1.23;;;21.30;44.00;;;;;;5013612;28;20690;-57
2022/01/31 11:36:28;;;;;;;2.63;1.40;;;21.30;44.20;;;;;;5010909;28;20137;-56
2022/01/31 11:38:54;;;;;;;3.08;1.27;;;21.30;44.20;;;;;;5013118;28;20073;-57
2022/01/31 11:41:20;;;;;;;2.00;1.20;;;21.30;44.40;;;;;;5011044;28;20136;-56
2022/01/31 11:43:55;;;;;;;5.13;1.40;;;21.40;44.40;;;;;;5012356;28;20048;-56
2022/01/31 11:46:24;;;;;;;2.20;1.15;;;21.30;44.30;;;;;;5010212;28;20054;-56
2022/01/31 11:48:52;;;;;;;3.83;1.08;;;21.30;44.30;;;;;;5011447;28;20350;-57
2022/01/31 11:51:19;;;;;;;3.85;1.50;;;21.40;44.50;;;;;;5014740;28;20495;-57
2022/01/31 11:53:45;;;;;;;3.17;1.27;;;21.40;44.50;;;;;;5009672;28;20054;-58
2022/01/31 11:56:17;;;;;;;4.82;1.17;;;21.30;44.50;;;;;;5012216;28;20083;-57
2022/01/31 11:58:45;;;;;;;1.35;0.80;;;21.30;44.40;;;;;;5012723;28;20585;-56
2022/01/31 12:01:11;;;;;;;2.05;0.82;;;21.30;44.40;;;;;;5011712;28;20578;-56
2022/01/31 12:03:53;;;;;;;2.72;0.90;;;21.40;44.40;;;;;;5011723;28;20033;-56
2022/01/31 12:06:24;;;;;;;2.75;0.90;;;21.30;44.20;;;;;;5012586;28;20057;-57
2022/01/31 12:08:53;;;;;;;2.05;0.93;;;21.30;44.20;;;;;;5012818;28;20056;-57
2022/01/31 12:11:30;;;;;;;2.67;0.98;;;21.30;44.20;;;;;;5013518;28;20053;-56
2022/01/31 12:14:08;;;;;;;2.03;0.85;;;21.30;44.20;;;;;;5013544;28;20850;-56
2022/01/31 12:19:29;;;;;;;2.25;0.80;;;21.30;44.10;;;;;;5015043;28;20045;-57
2022/01/31 12:22:04;;;;;;;1.42;0.70;;;21.30;44.10;;;;;;5011930;28;20057;-56
2022/01/31 12:24:32;;;;;;;3.60;1.17;;;21.30;44.10;;;;;;5011856;28;20045;-58
2022/01/31 12:27:10;;;;;;;2.25;1.00;;;21.30;44.00;;;;;;5014412;28;20160;-57
2022/01/31 12:29:51;;;;;;;2.67;1.15;;;21.30;44.10;;;;;;5010474;28;20073;-58
2022/01/31 12:32:38;;;;;;;2.22;0.80;;;21.30;44.10;;;;;;5010925;28;20045;-57
2022/01/31 12:35:09;;;;;;;2.35;0.82;;;21.30;44.10;;;;;;5009643;28;20054;-57
2022/01/31 12:37:48;;;;;;;2.58;1.00;;;21.30;44.10;;;;;;5006972;28;20069;-57
2022/01/31 12:40:29;;;;;;;1.88;0.80;;;21.30;44.30;;;;;;5011357;28;20045;-57
2022/01/31 12:45:39;;;;;;;2.42;1.10;;;21.30;44.30;;;;;;5013641;28;20115;-57
2022/01/31 12:48:41;;;;;;;4.53;1.20;;;21.30;44.40;;;;;;5010352;28;20061;-57
2022/01/31 12:51:08;;;;;;;2.10;0.98;;;21.30;44.40;;;;;;4934867;28;20059;-56
2022/01/31 12:53:43;;;;;;;2.72;1.00;;;21.30;44.40;;;;;;4995858;28;20052;-56
2022/01/31 12:56:26;;;;;;;3.30;1.30;;;21.30;44.40;;;;;;5008214;28;20646;-58
2022/01/31 12:58:56;;;;;;;2.17;0.88;;;21.30;44.40;;;;;;5013675;28;20149;-56
2022/01/31 13:01:31;;;;;;;4.47;1.08;;;21.30;44.30;;;;;;5011343;28;20038;-57
2022/01/31 13:04:19;;;;;;;2.47;0.98;;;21.30;44.40;;;;;;5013607;28;20042;-57
2022/01/31 13:06:50;;;;;;;3.30;1.00;;;21.30;44.30;;;;;;5008656;28;20090;-58
2022/01/31 13:09:18;;;;;;;3.47;1.00;;;21.30;44.30;;;;;;5010571;28;20140;-57
2022/01/31 13:11:48;;;;;;;2.10;1.08;;;21.20;44.20;;;;;;5009895;28;20144;-57
2022/01/31 13:14:24;;;;;;;2.85;1.35;;;21.30;44.30;;;;;;5009828;28;20054;-57
2022/01/31 13:19:33;;;;;;;2.35;1.08;;;21.30;44.30;;;;;;5009139;28;20054;-57
2022/01/31 13:22:00;;;;;;;3.30;1.20;;;21.30;44.20;;;;;;5011724;28;20042;-57